Riverton, Indiana
Current Conditions -  °F | °C
As of 7:55 PM on Monday 24 Nov 2014 (Local Time) from KRSV Reporting Station
Overcast Overcast  
Wind Chill: 31°   Ceiling: 8500
Heat Index: 38°   Visibility: 10mi
Dew Point: 30°   Wind: 12mph
Humidity: 73%   Direction: 250°WSW
Pressure: 29.91"   Gusts: 20mph
Location:  39.0138°N, 87.523°W
Report Text: KRSV 250055Z AUTO 25010G17KT 10SM OVC085 04/M01 A2991 RMK AO2 T00351010
Loading
Personal Weather Stations






























Interactive Weather Map New forecast layout! Learn more

10-Day Weather Forecast

Advertisements
Track Severe Weather on mobile